Time;durP1;ratioP1;P1;durP2;ratioP2;P2;SDS_P1;SDS_P2;PMS_P1;PMS_P2;Temp;Humidity;BMP_temperature;BMP_pressure;BME280_temperature;BME280_humidity;BME280_pressure;Samples;Min_cycle;Max_cycle;Signal;HPM_P1;HPM_P2
2023/01/13 00:01:22;;;;;;;;;;;1.60;99.90;;;;;;4892475;29;20025;-79
2023/01/13 00:03:48;;;;;;;52.10;27.77;;;1.60;99.90;;;;;;4877517;29;20005;-79
2023/01/13 00:06:24;;;;;;;50.97;26.70;;;1.60;99.90;;;;;;4877842;29;20044;-79
2023/01/13 00:08:51;;;;;;;49.20;24.17;;;1.60;99.90;;;;;;4895342;29;20029;-80
2023/01/13 00:11:18;;;;;;;48.63;24.45;;;1.60;99.90;;;;;;4877831;29;20045;-79
2023/01/13 00:13:44;;;;;;;41.63;20.17;;;1.60;99.90;;;;;;4895511;29;20050;-79
2023/01/13 00:16:11;;;;;;;;;;;1.60;99.90;;;;;;4895629;29;20426;-79
2023/01/13 00:18:37;;;;;;;42.47;21.52;;;1.50;99.90;;;;;;4894544;29;19892;-80
2023/01/13 00:21:04;;;;;;;;;;;1.50;99.90;;;;;;4895574;29;20065;-80
2023/01/13 00:23:32;;;;;;;40.00;20.65;;;1.40;99.90;;;;;;4895564;29;19942;-78
2023/01/13 00:25:59;;;;;;;41.00;21.73;;;1.40;99.90;;;;;;4895346;29;20033;-80
2023/01/13 00:28:25;;;;;;;40.80;21.45;;;1.30;99.90;;;;;;4894886;29;20037;-80
2023/01/13 00:30:51;;;;;;;;;;;1.30;99.90;;;;;;4880855;29;20009;-80
2023/01/13 00:33:17;;;;;;;73.45;34.85;;;1.30;99.90;;;;;;4877447;29;19976;-79
2023/01/13 00:35:42;;;;;;;;;;;1.30;99.90;;;;;;4877536;29;20062;-79
2023/01/13 00:38:08;;;;;;;53.08;24.90;;;1.30;99.90;;;;;;4891074;29;19916;-79
2023/01/13 00:40:33;;;;;;;;;;;1.30;99.90;;;;;;4876051;29;20105;-79
2023/01/13 00:45:43;;;;;;;314.08;35.88;;;1.20;99.90;;;;;;4894172;29;20053;-81
2023/01/13 00:48:09;;;;;;;;;;;1.10;99.90;;;;;;4892416;29;20041;-79
2023/01/13 00:50:35;;;;;;;348.85;40.85;;;1.00;99.90;;;;;;4891205;29;19908;-80
2023/01/13 00:53:00;;;;;;;;;;;1.00;99.90;;;;;;4879050;29;20089;-78
2023/01/13 00:55:29;;;;;;;140.88;36.88;;;1.00;99.90;;;;;;4877671;29;19919;-78
2023/01/13 00:58:02;;;;;;;101.45;35.22;;;0.90;99.90;;;;;;4862417;29;20376;-78
2023/01/13 01:00:31;;;;;;;318.10;40.40;;;0.90;99.90;;;;;;4884801;29;20084;-79
2023/01/13 01:02:56;;;;;;;67.40;33.70;;;0.90;99.90;;;;;;4884846;29;20033;-79
2023/01/13 01:05:22;;;;;;;;;;;0.80;99.90;;;;;;4887688;29;20053;-79
2023/01/13 01:07:48;;;;;;;71.75;35.15;;;0.80;99.90;;;;;;4875807;29;19938;-79
2023/01/13 01:10:13;;;;;;;;;;;0.80;99.90;;;;;;4887721;29;20029;-80
2023/01/13 01:12:39;;;;;;;157.25;44.30;;;0.80;99.90;;;;;;4902793;29;19926;-80
2023/01/13 01:15:06;;;;;;;;;;;0.90;99.90;;;;;;4888808;29;20018;-79
2023/01/13 01:17:32;;;;;;;126.13;47.17;;;0.90;99.90;;;;;;4888435;29;20294;-80
2023/01/13 01:19:58;;;;;;;182.05;48.88;;;0.90;99.90;;;;;;4880605;29;20084;-79
2023/01/13 01:22:23;;;;;;;;;;;1.00;99.90;;;;;;4895716;29;20466;-79
2023/01/13 01:24:49;;;;;;;83.22;33.92;;;1.10;99.90;;;;;;4895365;29;19908;-79
2023/01/13 01:27:14;;;;;;;;;;;1.20;99.90;;;;;;4895757;29;20039;-79
2023/01/13 01:29:40;;;;;;;137.18;30.33;;;1.20;99.90;;;;;;4894654;29;19930;-80
2023/01/13 01:32:06;;;;;;;;;;;1.30;99.90;;;;;;4879716;29;20017;-79
2023/01/13 01:34:31;;;;;;;85.80;32.55;;;1.30;99.90;;;;;;4894394;29;19927;-79
2023/01/13 01:36:57;;;;;;;;;;;1.30;99.90;;;;;;4880559;29;20025;-79
2023/01/13 01:39:23;;;;;;;78.00;26.67;;;1.40;99.90;;;;;;4880778;29;19947;-79
2023/01/13 01:44:42;;;;;;;76.90;25.63;;;1.60;99.90;;;;;;4895417;29;19957;-79
2023/01/13 01:47:15;;;;;;;134.35;29.83;;;1.60;99.90;;;;;;4878279;29;20104;-79
2023/01/13 01:49:43;;;;;;;84.35;26.58;;;1.60;99.90;;;;;;4894915;29;20044;-78
2023/01/13 01:52:08;;;;;;;71.43;24.50;;;1.70;99.90;;;;;;4877695;29;20033;-79
2023/01/13 01:54:34;;;;;;;;;;;1.70;99.90;;;;;;4877819;29;20044;-79
2023/01/13 01:57:00;;;;;;;58.47;21.83;;;1.70;99.90;;;;;;4893874;29;19908;-79
2023/01/13 01:59:26;;;;;;;;;;;1.80;99.90;;;;;;4893929;29;20060;-79
2023/01/13 02:01:52;;;;;;;111.57;36.83;;;1.80;99.90;;;;;;4877898;29;20297;-79
2023/01/13 02:04:22;;;;;;;;;;;1.80;99.90;;;;;;4894706;29;20277;-81
2023/01/13 02:06:49;;;;;;;232.10;35.97;;;1.80;99.90;;;;;;4893139;29;19899;-79
2023/01/13 02:09:16;;;;;;;191.98;31.42;;;1.70;99.90;;;;;;4878070;29;20064;-80
2023/01/13 02:14:28;;;;;;;155.10;29.65;;;1.70;99.90;;;;;;4894170;29;20072;-79
2023/01/13 02:17:03;;;;;;;70.05;27.13;;;1.70;99.90;;;;;;4895209;29;20029;-80
2023/01/13 02:19:53;;;;;;;112.53;27.53;;;1.70;99.90;;;;;;4900558;29;20029;-80
2023/01/13 02:23:04;;;;;;;116.35;32.08;;;1.60;99.90;;;;;;4882571;29;20615;-79
2023/01/13 02:25:42;;;;;;;77.68;28.33;;;1.60;99.90;;;;;;4885015;29;20392;-80
2023/01/13 02:28:28;;;;;;;67.10;26.88;;;1.60;99.90;;;;;;4881364;29;20037;-80
2023/01/13 02:34:10;;;;;;;54.80;22.42;;;1.60;99.90;;;;;;4900108;29;20039;-80
2023/01/13 02:36:38;;;;;;;48.03;20.08;;;1.60;99.90;;;;;;4894261;29;20092;-80
2023/01/13 02:39:28;;;;;;;49.70;19.42;;;1.50;99.90;;;;;;4896448;29;20029;-80
2023/01/13 02:45:12;;;;;;;62.42;22.10;;;1.40;99.90;;;;;;4899757;29;20057;-80
2023/01/13 02:47:42;;;;;;;50.75;20.40;;;1.30;99.90;;;;;;4899737;29;20033;-80
2023/01/13 02:50:16;;;;;;;44.78;17.88;;;1.30;99.90;;;;;;4878304;29;20033;-78
2023/01/13 02:52:58;;;;;;;56.80;22.25;;;1.30;99.90;;;;;;4876077;29;20061;-79
2023/01/13 02:55:31;;;;;;;60.70;22.52;;;1.20;99.90;;;;;;4894296;29;20017;-79
2023/01/13 02:57:59;;;;;;;70.57;23.95;;;1.20;99.90;;;;;;4894206;29;20053;-79
2023/01/13 03:00:26;;;;;;;245.13;24.65;;;1.20;99.90;;;;;;4886088;29;20089;-78
2023/01/13 03:02:52;;;;;;;257.95;24.73;;;1.30;99.90;;;;;;4874429;29;20033;-79
2023/01/13 03:05:18;;;;;;;;;;;1.30;99.90;;;;;;4891338;29;20036;-79
2023/01/13 03:08:01;;;;;;;141.65;25.38;;;1.30;99.90;;;;;;4889410;29;20010;-78
2023/01/13 03:10:48;;;;;;;266.05;29.77;;;1.20;99.90;;;;;;4891585;29;20062;-78
2023/01/13 03:13:31;;;;;;;133.95;25.88;;;1.20;99.90;;;;;;4877028;29;20080;-80
2023/01/13 03:16:34;;;;;;;313.42;27.85;;;1.20;99.90;;;;;;4896516;29;20037;-81
2023/01/13 03:19:27;;;;;;;217.70;29.48;;;1.30;99.90;;;;;;4878153;29;20037;-79
2023/01/13 03:21:58;;;;;;;270.13;34.45;;;1.30;99.90;;;;;;4875983;29;20053;-79
2023/01/13 03:24:35;;;;;;;276.35;33.45;;;1.20;99.90;;;;;;4893603;29;20036;-79
2023/01/13 03:27:09;;;;;;;72.80;25.63;;;1.20;99.90;;;;;;4876416;29;20057;-78
2023/01/13 03:30:02;;;;;;;181.40;28.30;;;1.10;99.90;;;;;;4877257;29;20036;-80
2023/01/13 03:32:34;;;;;;;53.10;22.27;;;1.20;99.90;;;;;;4892865;29;20029;-79
2023/01/13 03:35:08;;;;;;;51.38;21.65;;;1.20;99.90;;;;;;4890803;29;20041;-79
2023/01/13 03:37:39;;;;;;;49.90;21.67;;;1.10;99.90;;;;;;4872622;29;20021;-79
2023/01/13 03:40:14;;;;;;;55.38;22.33;;;1.20;99.90;;;;;;4873021;29;20044;-79
2023/01/13 03:44:20;;;;;;;44.22;20.02;;;1.20;99.90;;;;;;4891399;29;20021;-79
2023/01/13 03:45:34;;;;;;;51.05;22.33;;;1.20;99.90;;;;;;4889508;29;20041;-80
2023/01/13 03:48:05;;;;;;;49.90;20.70;;;1.20;99.90;;;;;;4872643;29;20388;-79
2023/01/13 03:50:40;;;;;;;48.25;20.63;;;1.20;99.90;;;;;;4889180;29;20028;-79
2023/01/13 03:53:11;;;;;;;50.58;21.45;;;1.20;99.90;;;;;;4873464;29;20036;-80
2023/01/13 03:55:47;;;;;;;46.88;21.15;;;1.20;99.90;;;;;;4892857;29;20037;-79
2023/01/13 03:58:22;;;;;;;40.65;19.40;;;1.20;99.90;;;;;;4875408;29;20112;-78
2023/01/13 04:01:11;;;;;;;39.78;19.55;;;1.20;99.90;;;;;;4875816;29;20029;-79
2023/01/13 04:03:51;;;;;;;43.53;20.48;;;1.20;99.90;;;;;;4893081;29;20025;-80
2023/01/13 04:06:40;;;;;;;39.45;19.05;;;1.20;99.90;;;;;;4890104;29;20043;-79
2023/01/13 04:09:40;;;;;;;41.53;18.83;;;1.20;99.90;;;;;;4856937;29;20049;-79
2023/01/13 04:12:15;;;;;;;38.83;17.63;;;1.20;99.90;;;;;;4892017;29;20060;-79
2023/01/13 04:14:42;;;;;;;34.85;16.55;;;1.20;99.90;;;;;;4891641;29;20053;-80
2023/01/13 04:17:08;;;;;;;35.40;17.85;;;1.10;99.90;;;;;;4876667;29;20021;-79
2023/01/13 04:19:33;;;;;;;;;;;1.20;99.90;;;;;;4876182;29;20049;-79
2023/01/13 04:21:59;;;;;;;43.95;18.15;;;1.30;99.90;;;;;;4893018;29;19915;-78
2023/01/13 04:24:25;;;;;;;;;;;1.30;99.90;;;;;;4877920;29;20109;-80
2023/01/13 04:26:50;;;;;;;46.90;20.60;;;1.30;99.90;;;;;;4880516;29;20377;-79
2023/01/13 04:29:16;;;;;;;;;;;1.30;99.90;;;;;;4896718;29;20063;-79
2023/01/13 04:31:42;;;;;;;81.88;23.48;;;1.30;99.90;;;;;;4879926;29;19892;-80
2023/01/13 04:34:08;;;;;;;;;;;1.40;99.90;;;;;;4897328;29;20037;-79
2023/01/13 04:36:34;;;;;;;78.68;23.15;;;1.50;99.90;;;;;;4901950;29;19915;-80
2023/01/13 04:39:00;;;;;;;;;;;1.40;99.90;;;;;;4884257;29;20092;-79
2023/01/13 04:41:26;;;;;;;202.52;26.63;;;1.50;99.90;;;;;;4880298;29;19908;-79
2023/01/13 04:43:51;;;;;;;;;;;1.40;99.90;;;;;;4889805;29;20041;-79
2023/01/13 04:46:17;;;;;;;111.65;26.67;;;1.50;99.90;;;;;;4898826;29;20316;-79
2023/01/13 04:48:43;;;;;;;;;;;1.50;99.90;;;;;;4904214;29;20033;-80
2023/01/13 04:51:08;;;;;;;203.52;30.58;;;1.50;99.90;;;;;;4903505;29;19891;-79
2023/01/13 04:53:34;;;;;;;;;;;1.50;99.90;;;;;;4884583;29;20039;-79
2023/01/13 04:55:59;;;;;;;194.23;32.45;;;1.60;99.90;;;;;;4884132;29;19908;-79
2023/01/13 04:58:25;;;;;;;;;;;1.70;99.90;;;;;;4899398;29;20123;-78
2023/01/13 05:00:51;;;;;;;89.53;31.25;;;1.60;99.90;;;;;;4893692;29;19976;-78
2023/01/13 05:03:17;;;;;;;;;;;1.60;99.90;;;;;;4878894;29;20045;-78
2023/01/13 05:05:43;;;;;;;265.83;40.43;;;1.60;99.90;;;;;;4893775;29;19974;-78
2023/01/13 05:08:08;;;;;;;;;;;1.60;99.90;;;;;;4894336;29;20044;-78
2023/01/13 05:10:34;;;;;;;194.48;33.33;;;1.60;99.90;;;;;;4894911;29;19923;-78
2023/01/13 05:16:59;;;;;;;61.20;25.63;;;1.60;99.90;;;;;;4890402;29;20289;-78
2023/01/13 05:18:48;;;;;;;269.38;33.45;;;1.60;99.90;;;;;;4890524;29;20040;-78
2023/01/13 05:26:42;;;;;;;285.60;28.65;;;1.60;99.90;;;;;;4885381;29;20475;-75
2023/01/13 05:29:07;;;;;;;;;;;1.60;99.90;;;;;;4886497;29;20073;-77
2023/01/13 05:31:33;;;;;;;166.40;22.05;;;1.60;99.90;;;;;;4874877;29;20019;-79
2023/01/13 05:33:58;;;;;;;;;;;1.60;99.90;;;;;;4891536;29;20024;-77
2023/01/13 05:36:24;;;;;;;100.40;20.50;;;1.60;99.90;;;;;;4886637;29;19919;-78
2023/01/13 05:38:50;;;;;;;;;;;1.60;99.90;;;;;;4866528;29;20040;-79
2023/01/13 05:44:00;;;;;;;151.90;32.03;;;1.50;99.90;;;;;;4890953;29;20036;-78
2023/01/13 05:46:26;;;;;;;;;;;1.50;99.90;;;;;;4894181;29;20049;-78
2023/01/13 05:48:51;;;;;;;160.85;24.77;;;1.50;99.90;;;;;;4873975;29;19915;-79
2023/01/13 05:51:18;;;;;;;;;;;1.50;99.90;;;;;;4878739;29;20029;-79
2023/01/13 05:53:44;;;;;;;159.93;22.85;;;1.50;99.90;;;;;;4878995;29;19918;-78
2023/01/13 05:56:10;;;;;;;;;;;1.50;99.90;;;;;;4894330;29;20041;-79
2023/01/13 05:58:36;;;;;;;157.32;29.98;;;1.50;99.90;;;;;;4880215;29;19932;-79
2023/01/13 06:01:04;;;;;;;200.95;43.22;;;1.40;99.90;;;;;;4895245;29;20029;-78
2023/01/13 06:03:30;;;;;;;206.32;44.88;;;1.40;99.90;;;;;;4893289;29;20043;-78
2023/01/13 06:05:58;;;;;;;;;;;1.40;99.90;;;;;;4878127;29;20033;-79
2023/01/13 06:08:24;;;;;;;113.60;33.08;;;1.40;99.90;;;;;;4894074;29;19919;-79
2023/01/13 06:10:50;;;;;;;364.17;56.55;;;1.30;99.90;;;;;;4878436;29;20096;-78
2023/01/13 06:13:15;;;;;;;;;;;1.30;99.90;;;;;;4896164;29;20061;-78
2023/01/13 06:15:41;;;;;;;93.70;31.55;;;1.30;99.90;;;;;;4895326;29;19919;-79
2023/01/13 06:18:07;;;;;;;;;;;1.20;99.90;;;;;;4897948;29;20033;-79
2023/01/13 06:20:32;;;;;;;93.85;30.67;;;1.20;99.90;;;;;;4892126;29;19914;-79
2023/01/13 06:22:59;;;;;;;;;;;1.20;99.90;;;;;;4894557;29;20056;-79
2023/01/13 06:25:30;;;;;;;84.70;28.02;;;1.20;99.90;;;;;;4893519;29;19911;-78
2023/01/13 06:27:58;;;;;;;59.30;27.02;;;1.20;99.90;;;;;;4876397;29;20499;-79
2023/01/13 06:30:29;;;;;;;70.00;33.45;;;1.20;99.90;;;;;;4893239;29;20036;-79
2023/01/13 06:32:59;;;;;;;66.75;30.20;;;1.30;99.90;;;;;;4874113;29;20092;-78
2023/01/13 06:35:30;;;;;;;61.30;29.83;;;1.40;99.90;;;;;;4874147;29;20029;-78
2023/01/13 06:37:58;;;;;;;66.90;28.58;;;1.40;99.90;;;;;;4873083;29;20056;-78
2023/01/13 06:40:24;;;;;;;84.22;35.08;;;1.50;99.90;;;;;;4872617;29;20032;-77
2023/01/13 06:45:37;;;;;;;65.93;30.40;;;1.50;99.90;;;;;;4882454;29;20036;-77
2023/01/13 06:48:02;;;;;;;;;;;1.60;99.90;;;;;;4868562;29;20029;-78
2023/01/13 06:50:29;;;;;;;71.72;28.73;;;1.60;99.90;;;;;;4869198;29;20388;-78
2023/01/13 06:52:56;;;;;;;73.38;31.33;;;1.60;99.90;;;;;;4873862;29;20056;-76
2023/01/13 06:55:21;;;;;;;;;;;1.70;99.90;;;;;;4890563;29;20077;-79
2023/01/13 06:57:49;;;;;;;54.17;23.50;;;1.70;99.90;;;;;;4876383;29;19907;-78
2023/01/13 07:00:15;;;;;;;56.70;25.52;;;1.70;99.90;;;;;;4885101;29;20037;-78
2023/01/13 07:02:41;;;;;;;47.90;21.90;;;1.70;99.90;;;;;;4892051;29;20029;-78
2023/01/13 07:05:06;;;;;;;;;;;1.80;99.90;;;;;;4894278;29;20050;-79
2023/01/13 07:07:32;;;;;;;111.15;20.45;;;1.70;99.90;;;;;;4893282;29;19919;-78
2023/01/13 07:09:58;;;;;;;;;;;1.70;99.90;;;;;;4893261;29;20025;-79
2023/01/13 07:12:24;;;;;;;55.63;15.65;;;1.70;99.90;;;;;;4882740;29;19928;-78
2023/01/13 07:17:33;;;;;;;38.97;15.88;;;1.70;99.90;;;;;;4873640;29;19915;-78
2023/01/13 07:19:59;;;;;;;;;;;1.70;99.90;;;;;;4858845;29;20029;-78
2023/01/13 07:22:25;;;;;;;37.05;19.42;;;1.80;99.90;;;;;;4873519;29;19948;-79
2023/01/13 07:24:50;;;;;;;;;;;1.80;99.90;;;;;;4875046;29;20039;-79
2023/01/13 07:27:16;;;;;;;40.83;18.58;;;1.90;99.90;;;;;;4875113;29;19939;-79
2023/01/13 07:29:42;;;;;;;;;;;2.00;99.90;;;;;;4876110;29;20067;-79
2023/01/13 07:32:08;;;;;;;46.75;21.92;;;2.10;99.90;;;;;;4874849;29;19912;-79
2023/01/13 07:34:34;;;;;;;;;;;2.20;99.90;;;;;;4875382;29;20070;-79
2023/01/13 07:37:00;;;;;;;65.55;27.67;;;2.20;99.90;;;;;;4875106;29;19947;-79
2023/01/13 07:39:25;;;;;;;;;;;2.30;99.90;;;;;;4856217;29;20034;-78
2023/01/13 07:44:36;;;;;;;71.10;28.83;;;2.40;99.90;;;;;;4877436;29;20036;-80
2023/01/13 07:47:01;;;;;;;;;;;2.50;99.90;;;;;;4863239;29;20037;-79
2023/01/13 07:49:27;;;;;;;63.08;25.02;;;2.50;99.90;;;;;;4877733;29;19912;-79
2023/01/13 07:51:53;;;;;;;;;;;2.60;99.90;;;;;;4878207;29;20109;-79
2023/01/13 07:54:18;;;;;;;58.72;27.60;;;2.60;99.90;;;;;;4878268;29;19908;-79
2023/01/13 07:56:44;;;;;;;;;;;2.60;99.90;;;;;;4878148;29;20500;-79
2023/01/13 07:59:09;;;;;;;70.95;24.30;;;2.70;99.90;;;;;;4878065;29;19908;-79
2023/01/13 08:01:35;;;;;;;;;;;2.70;99.90;;;;;;4876709;29;20057;-79
2023/01/13 08:04:01;;;;;;;60.67;23.90;;;2.70;99.90;;;;;;4878494;29;20302;-79
2023/01/13 08:06:26;;;;;;;;;;;2.70;99.90;;;;;;4875027;29;20106;-79
2023/01/13 08:08:53;;;;;;;48.75;21.80;;;2.80;99.90;;;;;;4882261;29;20320;-81
2023/01/13 08:11:18;;;;;;;63.03;24.65;;;2.80;99.90;;;;;;4864519;29;20096;-79
2023/01/13 08:13:44;;;;;;;;;;;2.90;99.90;;;;;;4902127;29;20033;-78
2023/01/13 08:16:12;;;;;;;50.42;24.38;;;2.90;99.90;;;;;;4901243;29;19915;-79
2023/01/13 08:18:38;;;;;;;51.67;24.70;;;2.90;99.90;;;;;;4901509;29;20080;-79
2023/01/13 08:21:13;;;;;;;88.38;36.25;;;2.80;99.90;;;;;;4901026;29;20241;-80
2023/01/13 08:23:40;;;;;;;73.95;39.88;;;2.90;99.90;;;;;;4883981;29;20062;-79
2023/01/13 08:26:08;;;;;;;64.93;24.67;;;2.90;99.90;;;;;;4896071;29;20771;-82
2023/01/13 08:28:34;;;;;;;44.75;24.10;;;3.00;99.90;;;;;;4902898;29;20024;-78
2023/01/13 08:31:03;;;;;;;;;;;3.00;99.90;;;;;;4891039;29;20029;-78
2023/01/13 08:33:30;;;;;;;71.95;30.20;;;3.00;99.90;;;;;;4890004;29;19911;-77
2023/01/13 08:35:56;;;;;;;53.85;29.75;;;3.00;99.90;;;;;;4880626;29;20033;-78
2023/01/13 08:38:21;;;;;;;;;;;3.10;99.90;;;;;;4866031;29;20093;-78
2023/01/13 08:40:47;;;;;;;47.00;24.92;;;3.20;99.90;;;;;;4887178;29;20441;-78
2023/01/13 08:43:12;;;;;;;;;;;3.20;99.90;;;;;;4888030;29;20112;-79
2023/01/13 08:45:39;;;;;;;50.08;22.95;;;3.40;99.90;;;;;;4883963;29;19964;-78
2023/01/13 08:48:05;;;;;;;37.75;20.85;;;3.50;99.90;;;;;;4887879;29;20045;-79
2023/01/13 08:50:30;;;;;;;;;;;3.60;99.90;;;;;;4886532;29;20526;-77
2023/01/13 08:52:56;;;;;;;38.50;20.98;;;3.60;99.90;;;;;;4885508;29;19907;-79
2023/01/13 08:55:22;;;;;;;;;;;3.70;99.90;;;;;;4868110;29;20136;-77
2023/01/13 08:57:50;;;;;;;57.70;31.77;;;3.80;99.90;;;;;;4887798;29;19924;-78
2023/01/13 09:00:16;;;;;;;29.73;18.17;;;3.90;99.90;;;;;;4884579;29;20037;-78
2023/01/13 09:02:42;;;;;;;25.05;15.27;;;4.00;99.90;;;;;;4865140;29;20045;-78
2023/01/13 09:05:09;;;;;;;;;;;4.10;99.90;;;;;;4881385;29;20416;-79
2023/01/13 09:07:36;;;;;;;21.70;12.43;;;4.20;99.90;;;;;;4889987;29;20003;-79
2023/01/13 09:10:05;;;;;;;26.80;16.33;;;4.30;99.90;;;;;;4887896;29;20049;-78
2023/01/13 09:15:17;;;;;;;21.80;12.13;;;4.40;99.90;;;;;;4888334;29;20061;-78
2023/01/13 09:17:43;;;;;;;16.98;11.32;;;4.40;99.90;;;;;;4866986;29;20033;-79
2023/01/13 09:20:10;;;;;;;18.08;11.13;;;4.40;99.90;;;;;;4890915;29;20032;-79
2023/01/13 09:22:36;;;;;;;17.48;10.93;;;4.50;99.90;;;;;;4899486;29;20037;-79
2023/01/13 09:25:02;;;;;;;;;;;4.60;99.90;;;;;;4882741;29;20033;-79
2023/01/13 09:27:28;;;;;;;22.73;13.05;;;4.70;99.90;;;;;;4892841;29;19922;-78
2023/01/13 09:29:53;;;;;;;;;;;4.70;99.90;;;;;;4881675;29;20059;-77
2023/01/13 09:32:19;;;;;;;22.60;15.30;;;4.80;99.90;;;;;;4867355;29;20380;-77
2023/01/13 09:35:00;;;;;;;;;;;4.90;99.90;;;;;;4893426;29;20051;-76
2023/01/13 09:37:27;;;;;;;29.40;17.70;;;4.90;99.90;;;;;;4879868;29;19916;-77
2023/01/13 09:39:52;;;;;;;30.77;20.17;;;5.00;99.90;;;;;;4879394;29;20410;-76
2023/01/13 09:45:36;;;;;;;36.13;22.98;;;5.10;99.90;;;;;;4910291;29;19956;-78
2023/01/13 09:48:09;;;;;;;32.38;21.35;;;5.00;99.90;;;;;;4891088;29;20042;-78
2023/01/13 09:50:44;;;;;;;27.92;17.83;;;5.10;99.90;;;;;;4897190;29;20075;-76
2023/01/13 09:53:17;;;;;;;23.70;14.13;;;5.10;99.90;;;;;;4885257;29;20418;-78
2023/01/13 09:55:44;;;;;;;16.10;11.00;;;5.10;99.90;;;;;;4898611;29;20108;-78
2023/01/13 09:58:13;;;;;;;29.50;16.40;;;5.00;99.90;;;;;;4886249;29;20028;-77
2023/01/13 10:01:03;;;;;;;26.55;13.70;;;4.90;99.90;;;;;;4888003;29;20024;-79
2023/01/13 10:03:31;;;;;;;22.67;13.40;;;4.90;99.90;;;;;;4902194;29;20037;-79
2023/01/13 10:05:59;;;;;;;24.40;15.32;;;5.00;99.90;;;;;;4913676;29;20044;-79
2023/01/13 10:08:31;;;;;;;22.08;13.88;;;5.10;99.90;;;;;;4896024;29;20048;-79
2023/01/13 10:10:59;;;;;;;17.10;11.52;;;5.30;99.90;;;;;;4892533;29;20036;-78
2023/01/13 10:13:30;;;;;;;24.83;15.32;;;5.40;99.90;;;;;;4915807;29;20129;-79
2023/01/13 10:16:07;;;;;;;26.67;16.52;;;5.50;99.90;;;;;;4905705;29;20468;-80
2023/01/13 10:18:57;;;;;;;26.02;17.30;;;5.50;99.90;;;;;;4919687;29;20036;-79
2023/01/13 10:21:55;;;;;;;28.40;18.55;;;5.60;99.90;;;;;;4909266;29;20096;-79
2023/01/13 10:24:41;;;;;;;29.98;17.88;;;5.40;99.90;;;;;;4877777;29;20037;-79
2023/01/13 10:27:17;;;;;;;24.58;15.68;;;5.50;99.90;;;;;;4915744;29;20024;-79
2023/01/13 10:29:43;;;;;;;31.38;19.23;;;5.50;99.90;;;;;;4906558;29;20039;-79
2023/01/13 10:32:09;;;;;;;;;;;5.50;99.90;;;;;;4909023;29;20036;-79
2023/01/13 10:34:50;;;;;;;21.48;13.75;;;5.40;99.90;;;;;;4886796;29;19935;-78
2023/01/13 10:37:21;;;;;;;26.73;14.27;;;5.40;99.90;;;;;;4892115;29;20032;-80
2023/01/13 10:39:48;;;;;;;40.85;24.55;;;5.40;99.90;;;;;;4907902;29;20517;-78
2023/01/13 10:42:20;;;;;;;35.55;21.80;;;5.40;99.90;;;;;;4896403;29;20057;-79
2023/01/13 10:44:58;;;;;;;33.08;20.02;;;5.30;99.90;;;;;;4894210;29;20045;-79
2023/01/13 10:47:29;;;;;;;27.17;18.02;;;5.30;99.90;;;;;;4897499;29;20032;-79
2023/01/13 10:50:09;;;;;;;28.92;19.48;;;5.20;99.90;;;;;;4914974;29;20028;-79
2023/01/13 10:52:41;;;;;;;35.42;21.58;;;5.20;99.90;;;;;;4890856;29;20051;-78
2023/01/13 10:55:29;;;;;;;32.80;21.88;;;5.10;99.90;;;;;;4907102;29;20055;-77
2023/01/13 10:57:55;;;;;;;32.17;19.17;;;4.90;99.90;;;;;;4901286;29;20080;-78
2023/01/13 11:00:30;;;;;;;30.55;18.95;;;4.80;99.90;;;;;;4905580;29;20053;-74
2023/01/13 11:03:26;;;;;;;24.42;15.68;;;4.80;99.90;;;;;;4859573;29;20025;-74
2023/01/13 11:05:59;;;;;;;27.90;15.35;;;4.70;99.90;;;;;;4878411;29;20077;-78
2023/01/13 11:08:27;;;;;;;25.25;14.68;;;4.70;99.90;;;;;;4876912;29;20248;-77
2023/01/13 11:10:56;;;;;;;26.40;15.68;;;4.60;99.90;;;;;;4876055;29;20157;-78
2023/01/13 11:14:31;;;;;;;22.60;15.57;;;4.50;99.90;;;;;;4861584;29;20060;-78
2023/01/13 11:16:24;;;;;;;25.33;16.85;;;4.50;99.90;;;;;;4876792;29;20033;-77
2023/01/13 11:19:10;;;;;;;25.95;15.43;;;4.60;99.90;;;;;;4860836;29;20085;-78
2023/01/13 11:21:42;;;;;;;24.70;16.90;;;4.60;99.90;;;;;;4879711;29;20487;-78
2023/01/13 11:24:14;;;;;;;24.92;15.60;;;4.70;99.90;;;;;;4864047;29;20041;-78
2023/01/13 11:26:59;;;;;;;31.60;17.95;;;4.70;99.90;;;;;;4864880;29;20057;-80
2023/01/13 11:29:36;;;;;;;25.30;17.13;;;4.80;99.90;;;;;;4881143;29;20045;-79
2023/01/13 11:32:23;;;;;;;25.02;16.10;;;4.70;99.90;;;;;;4876953;29;20036;-79
2023/01/13 11:35:00;;;;;;;30.98;19.40;;;4.80;99.90;;;;;;4862743;29;20444;-79
2023/01/13 11:37:36;;;;;;;25.33;15.60;;;4.70;99.90;;;;;;4873808;29;20062;-79
2023/01/13 11:40:11;;;;;;;26.20;15.95;;;4.70;99.90;;;;;;4864777;29;20037;-78
2023/01/13 11:42:42;;;;;;;24.92;15.88;;;4.80;99.90;;;;;;4866849;29;20085;-79
2023/01/13 11:45:28;;;;;;;24.98;16.52;;;4.90;99.90;;;;;;4883853;29;20123;-79
2023/01/13 11:47:58;;;;;;;24.30;16.27;;;5.00;99.90;;;;;;4876599;29;20045;-78
2023/01/13 11:50:41;;;;;;;30.25;15.48;;;5.10;99.90;;;;;;4883865;29;20513;-77
2023/01/13 11:53:06;;;;;;;24.10;16.85;;;5.10;99.90;;;;;;4858868;29;20037;-79
2023/01/13 11:55:44;;;;;;;32.47;21.20;;;5.10;99.90;;;;;;4879459;29;20036;-79
2023/01/13 11:58:25;;;;;;;26.65;17.30;;;5.20;99.90;;;;;;4880227;29;20025;-79
2023/01/13 12:00:51;;;;;;;27.90;17.05;;;5.10;99.90;;;;;;4863846;29;20040;-79
2023/01/13 12:03:21;;;;;;;;;;;5.10;99.90;;;;;;4882426;29;20029;-79
2023/01/13 12:06:14;;;;;;;35.03;17.20;;;4.90;99.90;;;;;;4865857;29;20301;-79
2023/01/13 12:09:25;;;;;;;32.22;17.08;;;4.80;99.90;;;;;;4851968;29;20044;-78
2023/01/13 12:12:18;;;;;;;26.98;16.23;;;4.80;99.90;;;;;;4860958;29;20075;-77
2023/01/13 12:15:15;;;;;;;32.70;19.55;;;4.80;99.90;;;;;;4857978;29;20035;-78
2023/01/13 12:17:56;;;;;;;46.28;28.83;;;4.80;99.90;;;;;;4851989;29;20041;-79
2023/01/13 12:20:22;;;;;;;29.58;19.08;;;4.70;99.90;;;;;;4857764;29;20085;-79
2023/01/13 12:22:48;;;;;;;;;;;4.70;99.90;;;;;;4858919;29;20034;-77
2023/01/13 12:25:25;;;;;;;30.65;19.05;;;4.60;99.90;;;;;;4841089;29;19964;-77
2023/01/13 12:28:08;;;;;;;25.20;16.25;;;4.60;99.90;;;;;;4856916;29;20037;-78
2023/01/13 12:30:49;;;;;;;31.50;20.02;;;4.60;99.90;;;;;;4856922;29;20085;-78
2023/01/13 12:33:43;;;;;;;22.48;15.68;;;4.50;99.90;;;;;;4855705;29;20543;-78
2023/01/13 12:36:21;;;;;;;26.98;15.35;;;4.50;99.90;;;;;;4856804;29;20045;-78
2023/01/13 12:39:17;;;;;;;22.13;13.25;;;4.50;99.90;;;;;;4857711;29;20026;-78
2023/01/13 12:45:08;;;;;;;25.95;16.20;;;4.40;99.90;;;;;;4858389;29;20037;-78
2023/01/13 12:47:47;;;;;;;21.80;13.95;;;4.40;99.90;;;;;;4858236;29;20116;-79
2023/01/13 12:50:22;;;;;;;23.35;13.90;;;4.40;99.90;;;;;;4857983;29;20037;-78
2023/01/13 12:52:49;;;;;;;17.75;11.88;;;4.40;99.90;;;;;;4856159;29;20030;-76
2023/01/13 12:55:26;;;;;;;19.88;11.30;;;4.30;99.90;;;;;;4858253;29;20067;-77
2023/01/13 12:58:15;;;;;;;21.90;14.18;;;4.40;99.90;;;;;;4861040;29;20026;-77
2023/01/13 13:00:41;;;;;;;44.40;24.30;;;4.50;99.90;;;;;;4840118;29;20624;-77
2023/01/13 13:03:09;;;;;;;;;;;4.50;99.90;;;;;;4859645;29;20558;-77
2023/01/13 13:06:21;;;;;;;38.20;23.58;;;4.60;99.90;;;;;;4861526;29;19919;-77
2023/01/13 13:09:01;;;;;;;23.52;14.50;;;4.60;99.90;;;;;;4859871;29;20633;-77
2023/01/13 13:14:38;;;;;;;25.85;14.13;;;4.70;99.90;;;;;;4861693;29;20499;-77
2023/01/13 13:17:17;;;;;;;23.63;13.52;;;4.80;99.90;;;;;;4862294;29;20081;-77
2023/01/13 13:19:42;;;;;;;26.33;16.17;;;4.70;99.90;;;;;;4859869;29;20033;-77
2023/01/13 13:22:11;;;;;;;;;;;4.70;99.90;;;;;;4862046;29;20045;-77
2023/01/13 13:24:41;;;;;;;21.35;13.07;;;4.70;99.90;;;;;;4861066;29;20408;-77
2023/01/13 13:27:26;;;;;;;23.95;14.10;;;4.70;99.90;;;;;;4860495;29;20144;-77
2023/01/13 13:30:12;;;;;;;35.22;21.85;;;4.50;99.90;;;;;;4860928;29;20038;-77
2023/01/13 13:32:47;;;;;;;25.83;15.95;;;4.40;99.90;;;;;;4860381;29;20040;-78
2023/01/13 13:35:31;;;;;;;24.38;13.98;;;4.40;99.90;;;;;;4861776;29;20097;-77
2023/01/13 13:46:45;;;;;;;45.92;29.88;;;4.30;99.90;;;;;;4860218;29;20081;-77
2023/01/13 13:49:17;;;;;;;23.23;14.73;;;4.30;99.90;;;;;;4858588;29;20041;-77
2023/01/13 13:52:03;;;;;;;23.40;14.95;;;4.40;99.90;;;;;;4843979;29;20036;-78
2023/01/13 13:54:30;;;;;;;23.48;13.88;;;4.30;99.90;;;;;;4861742;29;20032;-78
2023/01/13 13:56:57;;;;;;;20.27;13.45;;;4.30;99.90;;;;;;4861446;29;20124;-79
2023/01/13 13:59:26;;;;;;;22.67;12.80;;;4.30;99.90;;;;;;4860570;29;20036;-78
2023/01/13 14:02:02;;;;;;;22.92;12.60;;;4.30;99.90;;;;;;4860448;29;20177;-77
2023/01/13 14:04:36;;;;;;;19.60;14.13;;;4.20;99.90;;;;;;4861297;29;20030;-77
2023/01/13 14:07:19;;;;;;;21.20;13.18;;;4.20;99.90;;;;;;4862875;29;20278;-77
2023/01/13 14:09:53;;;;;;;23.58;14.73;;;4.30;99.90;;;;;;4862832;29;20045;-78
2023/01/13 14:12:26;;;;;;;20.58;14.15;;;4.20;99.90;;;;;;4849059;29;20073;-78
2023/01/13 14:14:55;;;;;;;18.58;12.30;;;4.20;99.90;;;;;;4874590;29;20030;-78